sensor_id;sensor_type;location;lat;lon;timestamp;P1;durP1;ratioP1;P2;durP2;ratioP2
45007;SDS011;30743;52.008;5.644;2022-08-30T00:02:42;2.55;;;1.77;;
45007;SDS011;30743;52.008;5.644;2022-08-30T00:05:08;4.00;;;2.03;;
45007;SDS011;30743;52.008;5.644;2022-08-30T00:07:35;4.68;;;1.88;;
45007;SDS011;30743;52.008;5.644;2022-08-30T00:10:02;2.60;;;2.05;;
45007;SDS011;30743;52.008;5.644;2022-08-30T00:12:28;3.95;;;2.30;;
45007;SDS011;30743;52.008;5.644;2022-08-30T00:14:56;3.67;;;2.00;;
45007;SDS011;30743;52.008;5.644;2022-08-30T00:17:22;3.00;;;2.22;;
45007;SDS011;30743;52.008;5.644;2022-08-30T00:19:47;4.82;;;2.13;;
45007;SDS011;30743;52.008;5.644;2022-08-30T00:22:13;4.03;;;2.33;;
45007;SDS011;30743;52.008;5.644;2022-08-30T00:24:38;3.17;;;1.92;;
45007;SDS011;30743;52.008;5.644;2022-08-30T00:27:04;4.28;;;2.22;;
45007;SDS011;30743;52.008;5.644;2022-08-30T00:29:29;4.07;;;2.15;;
45007;SDS011;30743;52.008;5.644;2022-08-30T00:31:55;3.00;;;2.10;;
45007;SDS011;30743;52.008;5.644;2022-08-30T00:34:21;4.72;;;2.33;;
45007;SDS011;30743;52.008;5.644;2022-08-30T00:36:46;4.32;;;2.50;;
45007;SDS011;30743;52.008;5.644;2022-08-30T00:39:12;4.13;;;2.60;;
45007;SDS011;30743;52.008;5.644;2022-08-30T00:41:37;4.38;;;2.85;;
45007;SDS011;30743;52.008;5.644;2022-08-30T00:44:03;3.83;;;2.38;;
45007;SDS011;30743;52.008;5.644;2022-08-30T00:46:29;3.42;;;2.58;;
45007;SDS011;30743;52.008;5.644;2022-08-30T00:49:05;2.60;;;2.33;;
45007;SDS011;30743;52.008;5.644;2022-08-30T00:51:33;3.80;;;2.70;;
45007;SDS011;30743;52.008;5.644;2022-08-30T00:53:58;3.30;;;2.45;;
45007;SDS011;30743;52.008;5.644;2022-08-30T00:56:25;6.20;;;2.40;;
45007;SDS011;30743;52.008;5.644;2022-08-30T00:58:54;4.80;;;2.70;;
45007;SDS011;30743;52.008;5.644;2022-08-30T01:01:23;6.25;;;2.85;;
45007;SDS011;30743;52.008;5.644;2022-08-30T01:03:50;3.75;;;2.78;;
45007;SDS011;30743;52.008;5.644;2022-08-30T01:06:16;4.10;;;2.75;;
45007;SDS011;30743;52.008;5.644;2022-08-30T01:08:42;5.20;;;2.92;;
45007;SDS011;30743;52.008;5.644;2022-08-30T01:11:09;3.70;;;2.80;;
45007;SDS011;30743;52.008;5.644;2022-08-30T01:13:36;4.47;;;2.88;;
45007;SDS011;30743;52.008;5.644;2022-08-30T01:16:02;4.28;;;3.00;;
45007;SDS011;30743;52.008;5.644;2022-08-30T01:18:29;4.60;;;2.80;;
45007;SDS011;30743;52.008;5.644;2022-08-30T01:23:50;3.97;;;3.10;;
45007;SDS011;30743;52.008;5.644;2022-08-30T01:26:18;4.85;;;3.83;;
45007;SDS011;30743;52.008;5.644;2022-08-30T01:28:46;4.40;;;3.67;;
45007;SDS011;30743;52.008;5.644;2022-08-30T01:31:14;4.28;;;3.10;;
45007;SDS011;30743;52.008;5.644;2022-08-30T01:33:40;6.00;;;3.50;;
45007;SDS011;30743;52.008;5.644;2022-08-30T01:36:07;5.38;;;3.50;;
45007;SDS011;30743;52.008;5.644;2022-08-30T01:38:41;5.75;;;3.40;;
45007;SDS011;30743;52.008;5.644;2022-08-30T01:41:15;4.70;;;3.45;;
45007;SDS011;30743;52.008;5.644;2022-08-30T01:43:50;5.10;;;3.20;;
45007;SDS011;30743;52.008;5.644;2022-08-30T01:46:19;4.20;;;3.40;;
45007;SDS011;30743;52.008;5.644;2022-08-30T01:48:47;3.97;;;3.40;;
45007;SDS011;30743;52.008;5.644;2022-08-30T01:51:13;5.05;;;3.53;;
45007;SDS011;30743;52.008;5.644;2022-08-30T01:53:40;4.50;;;3.33;;
45007;SDS011;30743;52.008;5.644;2022-08-30T01:56:06;4.72;;;3.05;;
45007;SDS011;30743;52.008;5.644;2022-08-30T01:58:33;4.93;;;3.67;;
45007;SDS011;30743;52.008;5.644;2022-08-30T02:01:02;6.28;;;3.72;;
45007;SDS011;30743;52.008;5.644;2022-08-30T02:03:28;4.47;;;3.77;;
45007;SDS011;30743;52.008;5.644;2022-08-30T02:06:02;4.22;;;3.25;;
45007;SDS011;30743;52.008;5.644;2022-08-30T02:08:28;6.00;;;4.00;;
45007;SDS011;30743;52.008;5.644;2022-08-30T02:10:54;4.72;;;4.00;;
45007;SDS011;30743;52.008;5.644;2022-08-30T02:13:19;3.92;;;3.25;;
45007;SDS011;30743;52.008;5.644;2022-08-30T02:15:45;3.85;;;3.38;;
45007;SDS011;30743;52.008;5.644;2022-08-30T02:18:10;4.78;;;4.03;;
45007;SDS011;30743;52.008;5.644;2022-08-30T02:20:37;5.40;;;4.00;;
45007;SDS011;30743;52.008;5.644;2022-08-30T02:23:03;4.00;;;3.45;;
45007;SDS011;30743;52.008;5.644;2022-08-30T02:25:29;4.45;;;3.92;;
45007;SDS011;30743;52.008;5.644;2022-08-30T02:27:54;4.43;;;3.85;;
45007;SDS011;30743;52.008;5.644;2022-08-30T02:30:20;8.20;;;4.10;;
45007;SDS011;30743;52.008;5.644;2022-08-30T02:32:45;5.78;;;4.28;;
45007;SDS011;30743;52.008;5.644;2022-08-30T02:35:11;6.18;;;4.50;;
45007;SDS011;30743;52.008;5.644;2022-08-30T02:37:36;5.32;;;4.20;;
45007;SDS011;30743;52.008;5.644;2022-08-30T02:40:02;4.35;;;3.67;;
45007;SDS011;30743;52.008;5.644;2022-08-30T02:42:28;4.72;;;4.30;;
45007;SDS011;30743;52.008;5.644;2022-08-30T02:44:54;7.10;;;4.53;;
45007;SDS011;30743;52.008;5.644;2022-08-30T02:47:20;6.90;;;4.10;;
45007;SDS011;30743;52.008;5.644;2022-08-30T02:49:46;4.63;;;4.20;;
45007;SDS011;30743;52.008;5.644;2022-08-30T02:52:11;6.40;;;4.35;;
45007;SDS011;30743;52.008;5.644;2022-08-30T02:54:37;7.28;;;4.63;;
45007;SDS011;30743;52.008;5.644;2022-08-30T02:57:03;4.70;;;4.20;;
45007;SDS011;30743;52.008;5.644;2022-08-30T02:59:30;7.45;;;5.28;;
45007;SDS011;30743;52.008;5.644;2022-08-30T03:01:56;6.63;;;4.65;;
45007;SDS011;30743;52.008;5.644;2022-08-30T03:04:22;6.50;;;4.60;;
45007;SDS011;30743;52.008;5.644;2022-08-30T03:06:48;6.65;;;4.88;;
45007;SDS011;30743;52.008;5.644;2022-08-30T03:09:13;6.95;;;4.72;;
45007;SDS011;30743;52.008;5.644;2022-08-30T03:11:39;5.72;;;4.82;;
45007;SDS011;30743;52.008;5.644;2022-08-30T03:14:06;5.68;;;4.95;;
45007;SDS011;30743;52.008;5.644;2022-08-30T03:16:31;5.38;;;4.88;;
45007;SDS011;30743;52.008;5.644;2022-08-30T03:18:57;6.50;;;5.25;;
45007;SDS011;30743;52.008;5.644;2022-08-30T03:21:22;6.00;;;5.05;;
45007;SDS011;30743;52.008;5.644;2022-08-30T03:23:48;9.85;;;6.00;;
45007;SDS011;30743;52.008;5.644;2022-08-30T03:26:13;7.45;;;5.78;;
45007;SDS011;30743;52.008;5.644;2022-08-30T03:28:40;6.53;;;5.93;;
45007;SDS011;30743;52.008;5.644;2022-08-30T03:31:06;7.57;;;5.82;;
45007;SDS011;30743;52.008;5.644;2022-08-30T03:33:33;6.80;;;6.10;;
45007;SDS011;30743;52.008;5.644;2022-08-30T03:35:59;7.28;;;6.10;;
45007;SDS011;30743;52.008;5.644;2022-08-30T03:38:24;6.85;;;6.20;;
45007;SDS011;30743;52.008;5.644;2022-08-30T03:40:50;6.55;;;5.95;;
45007;SDS011;30743;52.008;5.644;2022-08-30T03:43:15;10.25;;;5.93;;
45007;SDS011;30743;52.008;5.644;2022-08-30T03:45:41;7.40;;;6.57;;
45007;SDS011;30743;52.008;5.644;2022-08-30T03:48:07;8.18;;;6.13;;
45007;SDS011;30743;52.008;5.644;2022-08-30T03:50:32;9.32;;;6.38;;
45007;SDS011;30743;52.008;5.644;2022-08-30T03:52:59;7.13;;;6.05;;
45007;SDS011;30743;52.008;5.644;2022-08-30T03:55:25;7.32;;;6.55;;
45007;SDS011;30743;52.008;5.644;2022-08-30T03:57:52;6.95;;;6.20;;
45007;SDS011;30743;52.008;5.644;2022-08-30T04:00:18;7.85;;;6.07;;
45007;SDS011;30743;52.008;5.644;2022-08-30T04:02:44;8.43;;;6.18;;
45007;SDS011;30743;52.008;5.644;2022-08-30T04:05:10;6.82;;;6.15;;
45007;SDS011;30743;52.008;5.644;2022-08-30T04:07:36;8.40;;;5.90;;
45007;SDS011;30743;52.008;5.644;2022-08-30T04:10:03;7.28;;;6.03;;
45007;SDS011;30743;52.008;5.644;2022-08-30T04:12:30;9.30;;;6.53;;
45007;SDS011;30743;52.008;5.644;2022-08-30T04:14:55;9.15;;;6.22;;
45007;SDS011;30743;52.008;5.644;2022-08-30T04:17:21;7.68;;;6.22;;
45007;SDS011;30743;52.008;5.644;2022-08-30T04:19:46;7.85;;;6.50;;
45007;SDS011;30743;52.008;5.644;2022-08-30T04:22:12;7.47;;;6.55;;
45007;SDS011;30743;52.008;5.644;2022-08-30T04:24:37;10.07;;;6.72;;
45007;SDS011;30743;52.008;5.644;2022-08-30T04:27:05;8.40;;;7.38;;
45007;SDS011;30743;52.008;5.644;2022-08-30T04:29:31;6.50;;;5.90;;
45007;SDS011;30743;52.008;5.644;2022-08-30T04:31:57;7.75;;;6.47;;
45007;SDS011;30743;52.008;5.644;2022-08-30T04:34:22;10.93;;;6.78;;
45007;SDS011;30743;52.008;5.644;2022-08-30T04:36:48;6.53;;;5.80;;
45007;SDS011;30743;52.008;5.644;2022-08-30T04:39:14;6.72;;;6.03;;
45007;SDS011;30743;52.008;5.644;2022-08-30T04:41:41;6.90;;;6.03;;
45007;SDS011;30743;52.008;5.644;2022-08-30T04:44:07;7.53;;;6.15;;
45007;SDS011;30743;52.008;5.644;2022-08-30T04:46:33;6.82;;;5.95;;
45007;SDS011;30743;52.008;5.644;2022-08-30T04:49:00;7.90;;;6.22;;
45007;SDS011;30743;52.008;5.644;2022-08-30T04:51:26;8.98;;;6.80;;
45007;SDS011;30743;52.008;5.644;2022-08-30T04:53:51;6.50;;;5.90;;
45007;SDS011;30743;52.008;5.644;2022-08-30T04:56:18;7.53;;;6.68;;
45007;SDS011;30743;52.008;5.644;2022-08-30T04:58:51;9.00;;;6.03;;
45007;SDS011;30743;52.008;5.644;2022-08-30T05:01:20;6.72;;;5.75;;
45007;SDS011;30743;52.008;5.644;2022-08-30T05:03:48;9.10;;;6.70;;
45007;SDS011;30743;52.008;5.644;2022-08-30T05:06:14;6.55;;;5.88;;
45007;SDS011;30743;52.008;5.644;2022-08-30T05:08:40;6.78;;;6.03;;
45007;SDS011;30743;52.008;5.644;2022-08-30T05:11:06;5.43;;;4.63;;
45007;SDS011;30743;52.008;5.644;2022-08-30T05:13:33;7.78;;;5.07;;
45007;SDS011;30743;52.008;5.644;2022-08-30T05:15:59;6.35;;;5.20;;
45007;SDS011;30743;52.008;5.644;2022-08-30T05:18:26;6.15;;;4.50;;
45007;SDS011;30743;52.008;5.644;2022-08-30T05:21:01;6.47;;;4.47;;
45007;SDS011;30743;52.008;5.644;2022-08-30T05:23:38;7.57;;;4.55;;
45007;SDS011;30743;52.008;5.644;2022-08-30T05:26:09;7.30;;;4.30;;
45007;SDS011;30743;52.008;5.644;2022-08-30T05:28:38;5.28;;;4.28;;
45007;SDS011;30743;52.008;5.644;2022-08-30T05:31:11;6.70;;;4.00;;
45007;SDS011;30743;52.008;5.644;2022-08-30T05:33:40;6.10;;;4.43;;
45007;SDS011;30743;52.008;5.644;2022-08-30T05:36:07;5.20;;;4.45;;
45007;SDS011;30743;52.008;5.644;2022-08-30T05:38:34;5.07;;;3.88;;
45007;SDS011;30743;52.008;5.644;2022-08-30T05:41:00;4.95;;;4.38;;
45007;SDS011;30743;52.008;5.644;2022-08-30T05:43:25;4.60;;;4.13;;
45007;SDS011;30743;52.008;5.644;2022-08-30T05:46:02;5.07;;;4.47;;
45007;SDS011;30743;52.008;5.644;2022-08-30T05:48:30;4.93;;;4.00;;
45007;SDS011;30743;52.008;5.644;2022-08-30T05:51:06;4.75;;;3.70;;
45007;SDS011;30743;52.008;5.644;2022-08-30T05:53:41;4.18;;;3.78;;
45007;SDS011;30743;52.008;5.644;2022-08-30T05:56:08;5.47;;;3.60;;
45007;SDS011;30743;52.008;5.644;2022-08-30T05:58:35;5.18;;;3.75;;
45007;SDS011;30743;52.008;5.644;2022-08-30T06:01:02;5.13;;;3.70;;
45007;SDS011;30743;52.008;5.644;2022-08-30T06:03:28;3.78;;;3.45;;
45007;SDS011;30743;52.008;5.644;2022-08-30T06:05:56;7.85;;;3.58;;
45007;SDS011;30743;52.008;5.644;2022-08-30T06:08:23;6.13;;;3.45;;
45007;SDS011;30743;52.008;5.644;2022-08-30T06:10:48;3.80;;;3.40;;
45007;SDS011;30743;52.008;5.644;2022-08-30T06:13:14;3.95;;;3.55;;
45007;SDS011;30743;52.008;5.644;2022-08-30T06:15:40;3.40;;;2.63;;
45007;SDS011;30743;52.008;5.644;2022-08-30T06:18:08;4.15;;;3.08;;
45007;SDS011;30743;52.008;5.644;2022-08-30T06:20:37;4.53;;;3.20;;
45007;SDS011;30743;52.008;5.644;2022-08-30T06:23:07;11.27;;;2.90;;
45007;SDS011;30743;52.008;5.644;2022-08-30T06:25:34;3.65;;;2.50;;
45007;SDS011;30743;52.008;5.644;2022-08-30T06:28:01;4.35;;;2.92;;
45007;SDS011;30743;52.008;5.644;2022-08-30T06:30:27;3.42;;;2.50;;
45007;SDS011;30743;52.008;5.644;2022-08-30T06:32:52;4.35;;;2.35;;
45007;SDS011;30743;52.008;5.644;2022-08-30T06:35:18;3.13;;;2.42;;
45007;SDS011;30743;52.008;5.644;2022-08-30T06:37:43;6.35;;;2.80;;
45007;SDS011;30743;52.008;5.644;2022-08-30T06:40:09;2.40;;;2.20;;
45007;SDS011;30743;52.008;5.644;2022-08-30T06:42:35;3.67;;;2.45;;
45007;SDS011;30743;52.008;5.644;2022-08-30T06:45:01;2.63;;;1.77;;
45007;SDS011;30743;52.008;5.644;2022-08-30T06:47:28;2.42;;;1.88;;
45007;SDS011;30743;52.008;5.644;2022-08-30T06:49:54;3.17;;;2.13;;
45007;SDS011;30743;52.008;5.644;2022-08-30T06:52:19;2.75;;;2.00;;
45007;SDS011;30743;52.008;5.644;2022-08-30T06:54:45;3.58;;;2.03;;
45007;SDS011;30743;52.008;5.644;2022-08-30T06:57:11;3.22;;;1.67;;
45007;SDS011;30743;52.008;5.644;2022-08-30T06:59:37;2.30;;;1.42;;
45007;SDS011;30743;52.008;5.644;2022-08-30T07:02:03;1.92;;;1.42;;
45007;SDS011;30743;52.008;5.644;2022-08-30T07:04:30;2.13;;;1.20;;
45007;SDS011;30743;52.008;5.644;2022-08-30T07:06:55;5.72;;;1.30;;
45007;SDS011;30743;52.008;5.644;2022-08-30T07:09:21;3.83;;;1.20;;
45007;SDS011;30743;52.008;5.644;2022-08-30T07:11:46;3.63;;;1.23;;
45007;SDS011;30743;52.008;5.644;2022-08-30T07:14:12;1.70;;;0.90;;
45007;SDS011;30743;52.008;5.644;2022-08-30T07:16:38;5.43;;;1.40;;
45007;SDS011;30743;52.008;5.644;2022-08-30T07:19:03;0.60;;;0.60;;
45007;SDS011;30743;52.008;5.644;2022-08-30T07:21:34;1.10;;;0.75;;
45007;SDS011;30743;52.008;5.644;2022-08-30T07:24:01;1.23;;;0.75;;
45007;SDS011;30743;52.008;5.644;2022-08-30T07:26:29;6.03;;;0.90;;
45007;SDS011;30743;52.008;5.644;2022-08-30T07:29:07;0.88;;;0.60;;
45007;SDS011;30743;52.008;5.644;2022-08-30T07:31:33;3.78;;;1.05;;
45007;SDS011;30743;52.008;5.644;2022-08-30T07:34:00;1.05;;;0.77;;
45007;SDS011;30743;52.008;5.644;2022-08-30T07:36:26;4.03;;;1.27;;
45007;SDS011;30743;52.008;5.644;2022-08-30T07:38:52;1.80;;;0.70;;
45007;SDS011;30743;52.008;5.644;2022-08-30T07:41:28;3.70;;;0.80;;
45007;SDS011;30743;52.008;5.644;2022-08-30T07:43:55;1.48;;;0.70;;
45007;SDS011;30743;52.008;5.644;2022-08-30T07:46:21;2.75;;;0.80;;
45007;SDS011;30743;52.008;5.644;2022-08-30T07:48:48;2.47;;;0.70;;
45007;SDS011;30743;52.008;5.644;2022-08-30T07:51:15;3.90;;;0.70;;
45007;SDS011;30743;52.008;5.644;2022-08-30T07:53:43;3.72;;;0.60;;
45007;SDS011;30743;52.008;5.644;2022-08-30T07:56:09;1.63;;;0.80;;
45007;SDS011;30743;52.008;5.644;2022-08-30T07:58:35;1.02;;;0.60;;
45007;SDS011;30743;52.008;5.644;2022-08-30T08:01:05;2.35;;;0.65;;
45007;SDS011;30743;52.008;5.644;2022-08-30T08:03:32;1.60;;;0.60;;
45007;SDS011;30743;52.008;5.644;2022-08-30T08:05:59;1.15;;;0.50;;
45007;SDS011;30743;52.008;5.644;2022-08-30T08:10:53;1.25;;;0.60;;
45007;SDS011;30743;52.008;5.644;2022-08-30T08:13:18;1.52;;;0.70;;
45007;SDS011;30743;52.008;5.644;2022-08-30T08:15:44;1.70;;;0.70;;
45007;SDS011;30743;52.008;5.644;2022-08-30T08:18:10;1.58;;;0.80;;
45007;SDS011;30743;52.008;5.644;2022-08-30T08:20:36;1.23;;;0.80;;
45007;SDS011;30743;52.008;5.644;2022-08-30T08:23:02;1.55;;;0.50;;
45007;SDS011;30743;52.008;5.644;2022-08-30T08:25:28;2.75;;;0.70;;
45007;SDS011;30743;52.008;5.644;2022-08-30T08:27:53;2.60;;;0.55;;
45007;SDS011;30743;52.008;5.644;2022-08-30T08:30:19;0.93;;;0.55;;
45007;SDS011;30743;52.008;5.644;2022-08-30T08:32:46;2.75;;;0.50;;
45007;SDS011;30743;52.008;5.644;2022-08-30T08:35:12;1.20;;;0.50;;
45007;SDS011;30743;52.008;5.644;2022-08-30T08:37:39;1.45;;;0.50;;
45007;SDS011;30743;52.008;5.644;2022-08-30T08:40:06;2.40;;;0.70;;
45007;SDS011;30743;52.008;5.644;2022-08-30T08:48:08;1.70;;;0.60;;
45007;SDS011;30743;52.008;5.644;2022-08-30T08:50:38;1.40;;;0.50;;
45007;SDS011;30743;52.008;5.644;2022-08-30T08:53:25;2.83;;;0.68;;
45007;SDS011;30743;52.008;5.644;2022-08-30T08:55:59;0.98;;;0.73;;
45007;SDS011;30743;52.008;5.644;2022-08-30T08:58:28;2.20;;;0.60;;
45007;SDS011;30743;52.008;5.644;2022-08-30T09:00:58;1.95;;;0.60;;
45007;SDS011;30743;52.008;5.644;2022-08-30T09:03:25;2.08;;;0.50;;
45007;SDS011;30743;52.008;5.644;2022-08-30T09:05:53;1.45;;;0.50;;
45007;SDS011;30743;52.008;5.644;2022-08-30T09:08:19;2.33;;;0.82;;
45007;SDS011;30743;52.008;5.644;2022-08-30T09:10:59;1.65;;;0.60;;
45007;SDS011;30743;52.008;5.644;2022-08-30T09:13:27;1.25;;;0.73;;
45007;SDS011;30743;52.008;5.644;2022-08-30T09:15:54;1.23;;;0.57;;
45007;SDS011;30743;52.008;5.644;2022-08-30T09:18:39;2.05;;;0.73;;
45007;SDS011;30743;52.008;5.644;2022-08-30T09:21:06;2.45;;;0.57;;
45007;SDS011;30743;52.008;5.644;2022-08-30T09:23:33;1.80;;;0.68;;
45007;SDS011;30743;52.008;5.644;2022-08-30T09:26:00;1.40;;;0.70;;
45007;SDS011;30743;52.008;5.644;2022-08-30T09:28:28;1.60;;;0.70;;
45007;SDS011;30743;52.008;5.644;2022-08-30T09:31:01;3.28;;;0.70;;
45007;SDS011;30743;52.008;5.644;2022-08-30T09:33:27;2.15;;;0.70;;
45007;SDS011;30743;52.008;5.644;2022-08-30T09:35:54;3.92;;;1.20;;
45007;SDS011;30743;52.008;5.644;2022-08-30T09:38:22;1.85;;;0.75;;
45007;SDS011;30743;52.008;5.644;2022-08-30T09:40:58;0.98;;;0.60;;
45007;SDS011;30743;52.008;5.644;2022-08-30T09:43:30;1.20;;;0.77;;
45007;SDS011;30743;52.008;5.644;2022-08-30T09:48:27;1.58;;;0.70;;
45007;SDS011;30743;52.008;5.644;2022-08-30T10:01:53;2.53;;;0.75;;
45007;SDS011;30743;52.008;5.644;2022-08-30T10:07:06;1.38;;;0.50;;
45007;SDS011;30743;52.008;5.644;2022-08-30T10:09:58;2.38;;;0.70;;
45007;SDS011;30743;52.008;5.644;2022-08-30T10:12:36;2.67;;;1.00;;
45007;SDS011;30743;52.008;5.644;2022-08-30T10:15:19;1.35;;;0.70;;
45007;SDS011;30743;52.008;5.644;2022-08-30T10:17:55;3.90;;;0.70;;
45007;SDS011;30743;52.008;5.644;2022-08-30T10:20:36;1.85;;;1.10;;
45007;SDS011;30743;52.008;5.644;2022-08-30T10:23:21;1.55;;;0.80;;
45007;SDS011;30743;52.008;5.644;2022-08-30T10:25:52;1.77;;;0.77;;
45007;SDS011;30743;52.008;5.644;2022-08-30T10:34:02;1.63;;;0.70;;
45007;SDS011;30743;52.008;5.644;2022-08-30T10:36:37;1.35;;;0.70;;
45007;SDS011;30743;52.008;5.644;2022-08-30T10:39:07;1.65;;;0.60;;
45007;SDS011;30743;52.008;5.644;2022-08-30T10:41:38;0.95;;;0.60;;
45007;SDS011;30743;52.008;5.644;2022-08-30T10:44:17;2.42;;;0.80;;
45007;SDS011;30743;52.008;5.644;2022-08-30T10:47:03;1.70;;;0.70;;
45007;SDS011;30743;52.008;5.644;2022-08-30T10:49:38;3.70;;;1.17;;
45007;SDS011;30743;52.008;5.644;2022-08-30T10:54:52;4.90;;;1.20;;
45007;SDS011;30743;52.008;5.644;2022-08-30T10:57:22;5.18;;;0.98;;
45007;SDS011;30743;52.008;5.644;2022-08-30T10:59:53;3.22;;;0.73;;
45007;SDS011;30743;52.008;5.644;2022-08-30T11:14:05;1.25;;;0.63;;
45007;SDS011;30743;52.008;5.644;2022-08-30T11:16:40;2.22;;;0.80;;
45007;SDS011;30743;52.008;5.644;2022-08-30T11:19:19;6.32;;;0.75;;
45007;SDS011;30743;52.008;5.644;2022-08-30T11:22:15;4.97;;;0.80;;
45007;SDS011;30743;52.008;5.644;2022-08-30T11:25:04;2.05;;;0.70;;
45007;SDS011;30743;52.008;5.644;2022-08-30T11:27:41;3.22;;;0.80;;
45007;SDS011;30743;52.008;5.644;2022-08-30T11:33:01;1.88;;;0.90;;
45007;SDS011;30743;52.008;5.644;2022-08-30T11:35:40;2.35;;;0.85;;
45007;SDS011;30743;52.008;5.644;2022-08-30T11:46:15;3.58;;;0.90;;
45007;SDS011;30743;52.008;5.644;2022-08-30T11:48:47;2.55;;;0.80;;
45007;SDS011;30743;52.008;5.644;2022-08-30T11:51:32;1.90;;;0.80;;
45007;SDS011;30743;52.008;5.644;2022-08-30T11:54:18;2.58;;;0.93;;
45007;SDS011;30743;52.008;5.644;2022-08-30T11:57:24;4.40;;;0.98;;
45007;SDS011;30743;52.008;5.644;2022-08-30T12:00:07;2.40;;;0.82;;
45007;SDS011;30743;52.008;5.644;2022-08-30T12:02:57;1.20;;;0.60;;
45007;SDS011;30743;52.008;5.644;2022-08-30T12:10:57;4.00;;;1.00;;
45007;SDS011;30743;52.008;5.644;2022-08-30T12:18:44;1.55;;;0.70;;
45007;SDS011;30743;52.008;5.644;2022-08-30T12:23:50;0.93;;;0.70;;
45007;SDS011;30743;52.008;5.644;2022-08-30T12:26:33;2.80;;;0.70;;
45007;SDS011;30743;52.008;5.644;2022-08-30T12:29:09;0.55;;;0.52;;
45007;SDS011;30743;52.008;5.644;2022-08-30T12:34:16;0.90;;;0.70;;
45007;SDS011;30743;52.008;5.644;2022-08-30T12:36:51;3.10;;;0.80;;
45007;SDS011;30743;52.008;5.644;2022-08-30T12:44:57;2.67;;;0.90;;
45007;SDS011;30743;52.008;5.644;2022-08-30T12:47:27;2.35;;;0.60;;
45007;SDS011;30743;52.008;5.644;2022-08-30T12:50:15;2.58;;;1.08;;
45007;SDS011;30743;52.008;5.644;2022-08-30T12:52:54;4.15;;;0.80;;
45007;SDS011;30743;52.008;5.644;2022-08-30T12:55:29;1.10;;;0.80;;
45007;SDS011;30743;52.008;5.644;2022-08-30T12:58:01;2.05;;;0.80;;
45007;SDS011;30743;52.008;5.644;2022-08-30T13:00:32;1.75;;;1.02;;
45007;SDS011;30743;52.008;5.644;2022-08-30T13:05:54;2.63;;;0.70;;
45007;SDS011;30743;52.008;5.644;2022-08-30T13:10:53;2.03;;;0.77;;
45007;SDS011;30743;52.008;5.644;2022-08-30T13:13:34;2.83;;;1.00;;
45007;SDS011;30743;52.008;5.644;2022-08-30T13:16:10;3.20;;;0.90;;
45007;SDS011;30743;52.008;5.644;2022-08-30T13:18:42;2.00;;;0.70;;
45007;SDS011;30743;52.008;5.644;2022-08-30T13:23:53;3.10;;;0.60;;
45007;SDS011;30743;52.008;5.644;2022-08-30T13:26:30;1.15;;;0.80;;
45007;SDS011;30743;52.008;5.644;2022-08-30T13:29:00;3.67;;;0.98;;
45007;SDS011;30743;52.008;5.644;2022-08-30T13:31:28;1.48;;;0.90;;
45007;SDS011;30743;52.008;5.644;2022-08-30T13:33:55;1.70;;;0.60;;
45007;SDS011;30743;52.008;5.644;2022-08-30T13:36:21;1.05;;;0.60;;
45007;SDS011;30743;52.008;5.644;2022-08-30T13:38:52;1.38;;;0.70;;
45007;SDS011;30743;52.008;5.644;2022-08-30T13:41:17;3.90;;;0.70;;
45007;SDS011;30743;52.008;5.644;2022-08-30T13:43:45;3.63;;;1.35;;
45007;SDS011;30743;52.008;5.644;2022-08-30T13:46:11;1.90;;;1.00;;
45007;SDS011;30743;52.008;5.644;2022-08-30T13:48:38;1.35;;;0.82;;
45007;SDS011;30743;52.008;5.644;2022-08-30T13:51:04;2.53;;;0.80;;
45007;SDS011;30743;52.008;5.644;2022-08-30T13:53:30;2.17;;;0.70;;
45007;SDS011;30743;52.008;5.644;2022-08-30T13:55:55;2.40;;;0.70;;
45007;SDS011;30743;52.008;5.644;2022-08-30T13:58:21;1.23;;;0.68;;
45007;SDS011;30743;52.008;5.644;2022-08-30T14:00:47;0.90;;;0.77;;
45007;SDS011;30743;52.008;5.644;2022-08-30T14:03:13;1.60;;;0.52;;
45007;SDS011;30743;52.008;5.644;2022-08-30T14:05:39;1.75;;;0.93;;
45007;SDS011;30743;52.008;5.644;2022-08-30T14:08:07;1.48;;;0.70;;
45007;SDS011;30743;52.008;5.644;2022-08-30T14:10:34;2.38;;;0.60;;
45007;SDS011;30743;52.008;5.644;2022-08-30T14:13:00;3.08;;;0.90;;
45007;SDS011;30743;52.008;5.644;2022-08-30T14:15:26;3.67;;;0.70;;
45007;SDS011;30743;52.008;5.644;2022-08-30T14:17:52;3.38;;;0.82;;
45007;SDS011;30743;52.008;5.644;2022-08-30T14:20:18;1.92;;;0.80;;
45007;SDS011;30743;52.008;5.644;2022-08-30T14:22:43;1.30;;;0.80;;
45007;SDS011;30743;52.008;5.644;2022-08-30T14:25:09;1.25;;;0.70;;
45007;SDS011;30743;52.008;5.644;2022-08-30T14:27:35;3.00;;;0.82;;
45007;SDS011;30743;52.008;5.644;2022-08-30T14:30:01;3.63;;;0.98;;
45007;SDS011;30743;52.008;5.644;2022-08-30T14:32:27;1.20;;;0.60;;
45007;SDS011;30743;52.008;5.644;2022-08-30T14:34:52;1.77;;;0.70;;
45007;SDS011;30743;52.008;5.644;2022-08-30T14:37:18;3.30;;;0.77;;
45007;SDS011;30743;52.008;5.644;2022-08-30T14:39:43;1.63;;;0.90;;
45007;SDS011;30743;52.008;5.644;2022-08-30T14:42:09;3.83;;;0.95;;
45007;SDS011;30743;52.008;5.644;2022-08-30T14:44:36;5.47;;;0.63;;
45007;SDS011;30743;52.008;5.644;2022-08-30T14:47:02;1.17;;;0.75;;
45007;SDS011;30743;52.008;5.644;2022-08-30T14:49:28;1.92;;;0.80;;
45007;SDS011;30743;52.008;5.644;2022-08-30T14:51:54;1.67;;;0.85;;
45007;SDS011;30743;52.008;5.644;2022-08-30T14:54:21;3.08;;;0.68;;
45007;SDS011;30743;52.008;5.644;2022-08-30T14:59:15;3.90;;;0.80;;
45007;SDS011;30743;52.008;5.644;2022-08-30T15:01:42;4.50;;;0.80;;
45007;SDS011;30743;52.008;5.644;2022-08-30T15:04:08;1.65;;;0.70;;
45007;SDS011;30743;52.008;5.644;2022-08-30T15:06:35;3.00;;;0.93;;
45007;SDS011;30743;52.008;5.644;2022-08-30T15:09:03;2.63;;;1.08;;
45007;SDS011;30743;52.008;5.644;2022-08-30T15:11:30;2.40;;;0.63;;
45007;SDS011;30743;52.008;5.644;2022-08-30T15:13:56;2.38;;;0.80;;
45007;SDS011;30743;52.008;5.644;2022-08-30T15:16:23;1.25;;;0.80;;
45007;SDS011;30743;52.008;5.644;2022-08-30T15:18:49;1.63;;;0.85;;
45007;SDS011;30743;52.008;5.644;2022-08-30T15:21:26;2.42;;;0.90;;
45007;SDS011;30743;52.008;5.644;2022-08-30T15:23:54;2.33;;;1.33;;
45007;SDS011;30743;52.008;5.644;2022-08-30T15:26:20;2.97;;;1.15;;
45007;SDS011;30743;52.008;5.644;2022-08-30T15:28:46;2.38;;;0.90;;
45007;SDS011;30743;52.008;5.644;2022-08-30T15:31:12;2.83;;;0.65;;
45007;SDS011;30743;52.008;5.644;2022-08-30T15:33:37;1.30;;;1.05;;
45007;SDS011;30743;52.008;5.644;2022-08-30T15:36:04;0.88;;;0.60;;
45007;SDS011;30743;52.008;5.644;2022-08-30T15:38:30;2.03;;;0.77;;
45007;SDS011;30743;52.008;5.644;2022-08-30T15:40:56;1.10;;;0.80;;
45007;SDS011;30743;52.008;5.644;2022-08-30T15:43:27;1.08;;;0.60;;
45007;SDS011;30743;52.008;5.644;2022-08-30T15:45:53;3.05;;;0.80;;
45007;SDS011;30743;52.008;5.644;2022-08-30T15:48:19;2.45;;;0.68;;
45007;SDS011;30743;52.008;5.644;2022-08-30T15:50:45;1.60;;;0.75;;
45007;SDS011;30743;52.008;5.644;2022-08-30T15:53:11;1.38;;;0.70;;
45007;SDS011;30743;52.008;5.644;2022-08-30T15:55:37;1.20;;;0.70;;
45007;SDS011;30743;52.008;5.644;2022-08-30T15:58:02;3.42;;;0.90;;
45007;SDS011;30743;52.008;5.644;2022-08-30T16:00:28;3.53;;;0.80;;
45007;SDS011;30743;52.008;5.644;2022-08-30T16:02:53;2.22;;;0.70;;
45007;SDS011;30743;52.008;5.644;2022-08-30T16:05:19;1.80;;;0.90;;
45007;SDS011;30743;52.008;5.644;2022-08-30T16:07:47;1.83;;;0.73;;
45007;SDS011;30743;52.008;5.644;2022-08-30T16:10:14;1.83;;;0.80;;
45007;SDS011;30743;52.008;5.644;2022-08-30T16:12:40;3.88;;;0.80;;
45007;SDS011;30743;52.008;5.644;2022-08-30T16:15:05;1.83;;;0.70;;
45007;SDS011;30743;52.008;5.644;2022-08-30T16:17:31;5.07;;;0.90;;
45007;SDS011;30743;52.008;5.644;2022-08-30T16:19:57;2.90;;;0.90;;
45007;SDS011;30743;52.008;5.644;2022-08-30T16:22:22;2.05;;;0.70;;
45007;SDS011;30743;52.008;5.644;2022-08-30T16:24:50;1.73;;;0.63;;
45007;SDS011;30743;52.008;5.644;2022-08-30T16:27:15;1.23;;;0.60;;